createdAt,value
2023-03-08T00:02:10.408Z,0.70
2023-03-08T00:04:37.481Z,0.87
2023-03-08T00:07:04.576Z,1.00
2023-03-08T00:09:31.641Z,1.17
2023-03-08T00:11:58.681Z,0.90
2023-03-08T00:14:25.855Z,1.00
2023-03-08T00:16:52.906Z,1.00
2023-03-08T00:19:19.990Z,1.20
2023-03-08T00:21:47.109Z,1.27
2023-03-08T00:24:16.662Z,1.33
2023-03-08T00:26:44.207Z,1.60
2023-03-08T00:29:11.304Z,1.33
2023-03-08T00:31:38.530Z,1.53
2023-03-08T00:34:05.628Z,1.70
2023-03-08T00:36:32.678Z,1.60
2023-03-08T00:38:59.742Z,1.27
2023-03-08T00:41:26.980Z,1.47
2023-03-08T00:43:54.040Z,1.40
2023-03-08T00:46:21.191Z,1.30
2023-03-08T00:48:48.296Z,1.30
2023-03-08T00:51:16.278Z,1.30
2023-03-08T00:53:43.410Z,1.50
2023-03-08T00:56:10.508Z,1.60
2023-03-08T00:58:38.212Z,1.40
2023-03-08T01:01:05.387Z,1.47
2023-03-08T01:03:32.710Z,1.13
2023-03-08T01:06:00.038Z,1.00
2023-03-08T01:08:27.661Z,0.63
2023-03-08T01:10:59.333Z,1.00
2023-03-08T01:13:36.433Z,1.30
2023-03-08T01:16:03.575Z,1.10
2023-03-08T01:18:30.640Z,1.40
2023-03-08T01:20:58.937Z,1.50
2023-03-08T01:23:26.076Z,1.40
2023-03-08T01:26:03.066Z,1.60
2023-03-08T01:28:30.162Z,1.70
2023-03-08T01:31:04.690Z,1.80
2023-03-08T01:33:31.943Z,1.70
2023-03-08T01:35:59.067Z,2.00
2023-03-08T01:38:26.218Z,1.67
2023-03-08T01:40:57.555Z,1.67
2023-03-08T01:43:25.688Z,1.70
2023-03-08T01:46:04.940Z,1.87
2023-03-08T01:48:37.689Z,1.40
2023-03-08T01:51:05.646Z,1.50
2023-03-08T01:53:34.325Z,1.53
2023-03-08T01:56:02.030Z,1.40
2023-03-08T01:58:29.264Z,1.30
2023-03-08T02:00:56.355Z,1.03
2023-03-08T02:03:23.400Z,1.10
2023-03-08T02:05:51.547Z,1.20
2023-03-08T02:08:18.872Z,0.90
2023-03-08T02:10:46.355Z,1.07
2023-03-08T02:13:13.524Z,1.20
2023-03-08T02:15:40.613Z,0.80
2023-03-08T02:18:07.667Z,1.30
2023-03-08T02:20:38.962Z,1.00
2023-03-08T02:23:12.211Z,1.07
2023-03-08T02:25:39.331Z,1.00
2023-03-08T02:28:06.663Z,0.80
2023-03-08T02:30:35.991Z,0.83
2023-03-08T02:33:03.143Z,1.07
2023-03-08T02:35:30.348Z,1.30
2023-03-08T02:37:57.459Z,0.93
2023-03-08T02:40:24.521Z,0.90
2023-03-08T02:42:53.333Z,1.33
2023-03-08T02:45:20.632Z,0.83
2023-03-08T02:47:47.715Z,1.07
2023-03-08T02:50:14.773Z,1.30
2023-03-08T02:52:41.866Z,1.10
2023-03-08T02:55:09.339Z,1.30
2023-03-08T02:57:36.449Z,1.30
2023-03-08T03:00:03.986Z,1.23
2023-03-08T03:02:32.921Z,1.10
2023-03-08T03:04:59.963Z,1.30
2023-03-08T03:07:27.052Z,1.20
2023-03-08T03:09:54.179Z,1.30
2023-03-08T03:12:21.212Z,1.43
2023-03-08T03:14:48.290Z,1.13
2023-03-08T03:17:15.372Z,1.23
2023-03-08T03:19:42.466Z,1.50
2023-03-08T03:22:09.528Z,1.33
2023-03-08T03:24:37.632Z,1.33
2023-03-08T03:27:04.855Z,1.40
2023-03-08T03:29:31.980Z,1.30
2023-03-08T03:31:59.035Z,1.50
2023-03-08T03:34:26.162Z,1.30
2023-03-08T03:36:53.198Z,1.43
2023-03-08T03:39:20.354Z,1.53
2023-03-08T03:41:47.462Z,1.50
2023-03-08T03:44:14.542Z,1.30
2023-03-08T03:46:41.690Z,1.57
2023-03-08T03:49:09.075Z,1.30
2023-03-08T03:51:36.161Z,1.40
2023-03-08T03:54:03.297Z,1.50
2023-03-08T03:56:30.416Z,1.63
2023-03-08T03:58:58.588Z,1.37
2023-03-08T04:01:27.888Z,1.40
2023-03-08T04:03:55.557Z,1.70
2023-03-08T04:06:24.153Z,1.30
2023-03-08T04:08:58.654Z,1.37
2023-03-08T04:11:27.229Z,2.00
2023-03-08T04:13:54.755Z,1.40
2023-03-08T04:16:23.435Z,1.57
2023-03-08T04:18:54.253Z,1.90
2023-03-08T04:21:21.821Z,1.60
2023-03-08T04:23:48.935Z,1.80
2023-03-08T04:26:17.140Z,1.70
2023-03-08T04:28:44.554Z,1.70
2023-03-08T04:31:19.408Z,2.20
2023-03-08T04:33:46.970Z,1.80
2023-03-08T04:36:14.358Z,1.97
2023-03-08T04:38:41.421Z,2.57
2023-03-08T04:41:12.161Z,2.47
2023-03-08T04:43:40.054Z,2.27
2023-03-08T04:46:07.984Z,2.50
2023-03-08T04:48:35.413Z,2.63
2023-03-08T04:51:03.685Z,1.90
2023-03-08T04:53:31.185Z,2.60
2023-03-08T04:56:01.486Z,2.33
2023-03-08T04:58:29.273Z,2.23
2023-03-08T05:00:57.094Z,2.67
2023-03-08T05:03:24.225Z,2.60
2023-03-08T05:05:55.554Z,2.87
2023-03-08T05:08:23.222Z,2.67
2023-03-08T05:10:51.006Z,2.47
2023-03-08T05:13:18.092Z,2.17
2023-03-08T05:15:45.230Z,2.80
2023-03-08T05:18:12.422Z,2.40
2023-03-08T05:20:39.486Z,2.63
2023-03-08T05:23:06.561Z,2.87
2023-03-08T05:25:34.671Z,2.60
2023-03-08T05:28:01.781Z,2.90
2023-03-08T05:30:28.851Z,2.47
2023-03-08T05:32:55.982Z,2.70
2023-03-08T05:35:23.185Z,2.70
2023-03-08T05:37:50.255Z,2.67
2023-03-08T05:40:17.438Z,2.90
2023-03-08T05:42:44.554Z,2.70
2023-03-08T05:45:12.215Z,3.07
2023-03-08T05:47:39.377Z,2.87
2023-03-08T05:50:06.660Z,3.03
2023-03-08T05:52:34.755Z,3.10
2023-03-08T05:55:01.938Z,2.70
2023-03-08T05:57:29.070Z,3.00
2023-03-08T05:59:56.138Z,3.20
2023-03-08T06:02:23.241Z,3.33
2023-03-08T06:04:50.306Z,3.40
2023-03-08T06:07:18.112Z,3.10
2023-03-08T06:09:45.181Z,3.17
2023-03-08T06:12:12.239Z,3.57
2023-03-08T06:14:39.311Z,3.20
2023-03-08T06:17:06.348Z,3.60
2023-03-08T06:19:33.440Z,3.33
2023-03-08T06:22:00.492Z,3.33
2023-03-08T06:24:27.567Z,3.67
2023-03-08T06:26:56.183Z,3.57
2023-03-08T06:29:23.545Z,3.53
2023-03-08T06:31:50.625Z,4.33
2023-03-08T06:34:18.022Z,4.40
2023-03-08T06:36:45.073Z,4.67
2023-03-08T06:39:12.137Z,3.83
2023-03-08T06:41:39.337Z,3.63
2023-03-08T06:44:06.484Z,3.57
2023-03-08T06:46:33.524Z,3.60
2023-03-08T06:49:01.272Z,3.67
2023-03-08T06:51:28.353Z,3.30
2023-03-08T06:53:55.400Z,3.13
2023-03-08T06:56:22.556Z,2.53
2023-03-08T06:58:49.620Z,3.23
2023-03-08T07:01:16.846Z,2.93
2023-03-08T07:03:45.303Z,3.40
2023-03-08T07:06:12.740Z,3.33
2023-03-08T07:08:40.084Z,2.63
2023-03-08T07:11:08.660Z,2.70
2023-03-08T07:13:36.084Z,3.27
2023-03-08T07:16:07.408Z,3.50
2023-03-08T07:18:34.570Z,3.30
2023-03-08T07:21:01.720Z,2.90
2023-03-08T07:23:28.798Z,2.97
2023-03-08T07:25:55.919Z,2.80
2023-03-08T07:28:22.973Z,2.83
2023-03-08T07:30:50.954Z,2.53
2023-03-08T07:33:18.515Z,2.50
2023-03-08T07:35:45.659Z,2.80
2023-03-08T07:38:13.378Z,2.67
2023-03-08T07:40:40.465Z,2.10
2023-03-08T07:43:07.847Z,2.33
2023-03-08T07:45:34.933Z,2.53
2023-03-08T07:48:01.976Z,2.70
2023-03-08T07:50:29.450Z,2.63
2023-03-08T07:52:56.525Z,3.17
2023-03-08T07:55:25.453Z,2.77
2023-03-08T07:57:52.612Z,2.30
2023-03-08T08:00:20.035Z,2.30
2023-03-08T08:02:48.144Z,2.30
2023-03-08T08:05:15.481Z,2.60
2023-03-08T08:07:42.629Z,2.57
2023-03-08T08:10:10.023Z,2.67
2023-03-08T08:12:37.066Z,2.97
2023-03-08T08:15:04.286Z,2.80
2023-03-08T08:17:31.387Z,2.60
2023-03-08T08:19:59.520Z,2.77
2023-03-08T08:22:26.653Z,3.37
2023-03-08T08:24:53.697Z,3.20
2023-03-08T08:27:20.821Z,3.70
2023-03-08T08:29:49.571Z,3.83
2023-03-08T08:32:16.717Z,3.90
2023-03-08T08:34:43.875Z,3.57
2023-03-08T08:37:10.981Z,3.90
2023-03-08T08:39:38.106Z,4.30
2023-03-08T08:42:05.325Z,3.90
2023-03-08T08:44:32.372Z,4.07
2023-03-08T08:46:59.452Z,4.10
2023-03-08T08:49:26.521Z,3.90
2023-03-08T08:51:53.669Z,4.40
2023-03-08T08:54:20.829Z,3.87
2023-03-08T08:56:47.940Z,3.90
2023-03-08T08:59:16.341Z,3.87
2023-03-08T09:01:44.033Z,3.87
2023-03-08T09:04:17.134Z,3.23
2023-03-08T09:06:44.614Z,3.27
2023-03-08T09:09:11.706Z,3.60
2023-03-08T09:11:53.422Z,3.30
2023-03-08T09:14:21.629Z,3.17
2023-03-08T09:16:48.763Z,2.70
2023-03-08T09:19:16.001Z,3.00
2023-03-08T09:21:43.131Z,3.23
2023-03-08T09:24:11.433Z,3.00
2023-03-08T09:26:38.510Z,2.63
2023-03-08T09:29:07.342Z,2.80
2023-03-08T09:31:36.169Z,3.27
2023-03-08T09:34:05.206Z,3.33
2023-03-08T09:36:32.387Z,3.10
2023-03-08T09:38:59.482Z,3.03
2023-03-08T09:41:35.576Z,2.93
2023-03-08T09:44:05.464Z,3.00
2023-03-08T09:46:38.859Z,3.40
2023-03-08T09:49:08.126Z,3.43
2023-03-08T09:51:37.144Z,3.07
2023-03-08T09:54:08.708Z,3.07
2023-03-08T09:56:35.731Z,3.27
2023-03-08T09:59:08.545Z,2.93
2023-03-08T10:01:50.724Z,3.23
2023-03-08T10:04:26.740Z,3.37
2023-03-08T10:06:56.576Z,3.17
2023-03-08T10:09:26.450Z,3.17
2023-03-08T10:11:59.366Z,2.53
2023-03-08T10:14:43.393Z,2.87
2023-03-08T10:17:13.657Z,3.10
2023-03-08T10:19:47.043Z,2.60
2023-03-08T10:22:42.259Z,2.73
2023-03-08T10:25:19.539Z,2.97
2023-03-08T10:27:48.356Z,2.90
2023-03-08T10:30:17.197Z,3.07
2023-03-08T10:32:45.656Z,3.00
2023-03-08T10:35:12.740Z,2.70
2023-03-08T10:37:39.894Z,2.40
2023-03-08T10:40:09.385Z,2.63
2023-03-08T10:42:36.957Z,2.40
2023-03-08T10:45:15.002Z,2.57
2023-03-08T10:47:42.284Z,2.33
2023-03-08T10:50:09.318Z,2.57
2023-03-08T10:52:36.578Z,2.23
2023-03-08T10:55:05.642Z,2.20
2023-03-08T10:57:33.291Z,2.30
2023-03-08T11:00:12.368Z,2.40
2023-03-08T11:02:39.454Z,2.40
2023-03-08T11:05:19.116Z,2.37
2023-03-08T11:07:59.239Z,2.27
2023-03-08T11:10:27.490Z,2.73
2023-03-08T11:13:02.244Z,2.40
2023-03-08T11:15:31.669Z,2.43
2023-03-08T11:18:12.458Z,2.40
2023-03-08T11:20:45.284Z,2.30
2023-03-08T11:23:24.323Z,2.30
2023-03-08T11:25:58.556Z,2.60
2023-03-08T11:28:29.165Z,2.53
2023-03-08T11:31:15.124Z,2.80
2023-03-08T11:33:54.526Z,2.60
2023-03-08T11:36:24.695Z,2.70
2023-03-08T11:39:06.679Z,2.90
2023-03-08T11:41:40.397Z,2.67
2023-03-08T11:44:07.465Z,3.07
2023-03-08T11:46:53.270Z,3.30
2023-03-08T11:49:20.344Z,3.00
2023-03-08T11:51:47.368Z,3.80
2023-03-08T11:54:41.262Z,3.63
2023-03-08T11:57:10.543Z,3.53
2023-03-08T11:59:40.153Z,4.07
2023-03-08T12:02:07.253Z,4.50
2023-03-08T12:04:43.653Z,4.33
2023-03-08T12:07:17.802Z,4.60
2023-03-08T12:09:50.873Z,4.80
2023-03-08T12:12:18.022Z,4.67
2023-03-08T12:14:48.140Z,4.87
2023-03-08T12:17:15.259Z,6.30
2023-03-08T12:19:44.344Z,5.83
2023-03-08T12:22:35.021Z,6.47
2023-03-08T12:25:17.332Z,6.53
2023-03-08T12:28:05.478Z,6.57
2023-03-08T12:30:43.621Z,6.73
2023-03-08T12:33:13.281Z,6.63
2023-03-08T12:35:51.106Z,7.10
2023-03-08T12:38:18.347Z,7.10
2023-03-08T12:40:47.401Z,7.27
2023-03-08T12:43:15.791Z,7.37
2023-03-08T12:45:44.934Z,7.60
2023-03-08T12:48:21.377Z,7.13
2023-03-08T12:50:59.100Z,7.10
2023-03-08T12:53:36.021Z,6.90
2023-03-08T12:56:05.155Z,6.70
2023-03-08T12:58:33.153Z,6.60
2023-03-08T13:01:25.209Z,7.63
2023-03-08T13:03:52.298Z,6.97
2023-03-08T13:06:28.259Z,7.27
2023-03-08T13:09:21.703Z,6.53
2023-03-08T13:11:53.006Z,6.17
2023-03-08T13:14:49.601Z,5.53
2023-03-08T13:17:32.302Z,5.90
2023-03-08T13:20:01.777Z,5.80
2023-03-08T13:22:31.949Z,5.57
2023-03-08T13:25:02.611Z,6.10
2023-03-08T13:27:52.780Z,5.63
2023-03-08T13:30:26.036Z,6.03
2023-03-08T13:32:53.252Z,5.37
2023-03-08T13:35:20.542Z,5.80
2023-03-08T13:37:59.747Z,5.67
2023-03-08T13:40:27.916Z,4.57
2023-03-08T13:42:56.403Z,5.10
2023-03-08T13:45:23.733Z,5.23
2023-03-08T13:47:50.923Z,5.43
2023-03-08T13:50:30.116Z,5.43
2023-03-08T13:52:57.290Z,5.40
2023-03-08T13:55:28.047Z,5.20
2023-03-08T13:57:55.333Z,5.67
2023-03-08T14:00:30.359Z,5.20
2023-03-08T14:02:57.691Z,5.27
2023-03-08T14:05:29.763Z,5.30
2023-03-08T14:08:02.851Z,5.10
2023-03-08T14:10:50.217Z,5.10
2023-03-08T14:13:20.094Z,4.47
2023-03-08T14:15:51.392Z,4.80
2023-03-08T14:18:23.035Z,4.70
2023-03-08T14:21:03.933Z,4.10
2023-03-08T14:23:31.344Z,4.40
2023-03-08T14:25:59.349Z,4.47
2023-03-08T14:28:35.419Z,4.07
2023-03-08T14:31:02.605Z,4.40
2023-03-08T14:33:41.764Z,3.80
2023-03-08T14:36:10.528Z,4.10
2023-03-08T14:38:37.678Z,3.60
2023-03-08T14:41:10.211Z,3.73
2023-03-08T14:43:37.566Z,3.93
2023-03-08T14:46:09.511Z,3.23
2023-03-08T14:48:37.658Z,3.23
2023-03-08T14:51:24.839Z,3.27
2023-03-08T14:54:02.420Z,3.20
2023-03-08T14:56:31.160Z,3.27
2023-03-08T14:59:00.234Z,3.23
2023-03-08T15:01:31.662Z,3.87
2023-03-08T15:03:59.158Z,3.37
2023-03-08T15:06:28.751Z,3.70
2023-03-08T15:08:56.118Z,3.33
2023-03-08T15:11:23.582Z,3.97
2023-03-08T15:13:51.248Z,3.50
2023-03-08T15:16:18.439Z,3.67
2023-03-08T15:18:45.586Z,3.40
2023-03-08T15:21:17.162Z,3.70
2023-03-08T15:23:44.564Z,4.00
2023-03-08T15:26:15.014Z,3.93
2023-03-08T15:28:42.160Z,3.90
2023-03-08T15:31:09.521Z,3.97
2023-03-08T15:33:36.586Z,3.67
2023-03-08T15:36:03.935Z,3.80
2023-03-08T15:38:31.083Z,3.60
2023-03-08T15:40:58.120Z,3.80
2023-03-08T15:43:25.199Z,4.03
2023-03-08T15:45:52.256Z,4.40
2023-03-08T15:48:19.902Z,4.10
2023-03-08T15:50:47.522Z,4.40
2023-03-08T15:53:23.362Z,4.40
2023-03-08T15:56:00.251Z,4.47
2023-03-08T15:58:27.329Z,4.73
2023-03-08T16:00:54.510Z,4.57
2023-03-08T16:03:25.856Z,4.70
2023-03-08T16:05:53.047Z,4.37
2023-03-08T16:08:25.059Z,5.23
2023-03-08T16:10:52.505Z,4.90
2023-03-08T16:13:21.858Z,5.40
2023-03-08T16:15:49.307Z,5.30
2023-03-08T16:18:16.481Z,5.23
2023-03-08T16:20:45.990Z,5.33
2023-03-08T16:23:13.140Z,5.77
2023-03-08T16:25:43.250Z,5.43
2023-03-08T16:28:11.014Z,5.60
2023-03-08T16:30:40.453Z,5.37
2023-03-08T16:33:07.581Z,5.23
2023-03-08T16:35:34.659Z,5.73
2023-03-08T16:38:01.801Z,5.83
2023-03-08T16:40:31.133Z,6.03
2023-03-08T16:42:58.320Z,6.10
2023-03-08T16:45:25.534Z,5.50
2023-03-08T16:47:52.640Z,5.90
2023-03-08T16:50:19.798Z,5.47
2023-03-08T16:52:47.003Z,5.30
2023-03-08T16:55:14.167Z,5.87
2023-03-08T16:57:41.282Z,6.27
2023-03-08T17:00:12.308Z,5.77
2023-03-08T17:02:39.509Z,5.33
2023-03-08T17:05:06.789Z,6.73
2023-03-08T17:07:33.916Z,6.10
2023-03-08T17:10:01.018Z,6.50
2023-03-08T17:12:28.079Z,6.23
2023-03-08T17:14:55.232Z,6.03
2023-03-08T17:17:22.302Z,6.03
2023-03-08T17:19:52.703Z,6.50
2023-03-08T17:22:19.793Z,6.50
2023-03-08T17:24:46.866Z,5.60
2023-03-08T17:27:15.112Z,6.03
2023-03-08T17:29:42.185Z,6.40
2023-03-08T17:32:09.266Z,6.10
2023-03-08T17:34:36.965Z,5.60
2023-03-08T17:37:04.028Z,5.57
2023-03-08T17:39:31.197Z,5.90
2023-03-08T17:41:58.285Z,6.33
2023-03-08T17:44:25.355Z,6.60
2023-03-08T17:46:52.430Z,6.23
2023-03-08T17:49:24.642Z,5.80
2023-03-08T17:51:52.295Z,5.70
2023-03-08T17:54:19.909Z,5.53
2023-03-08T17:56:47.215Z,6.17
2023-03-08T17:59:15.128Z,5.63
2023-03-08T18:01:42.659Z,6.57
2023-03-08T18:04:09.961Z,6.27
2023-03-08T18:06:39.125Z,6.50
2023-03-08T18:09:08.076Z,6.30
2023-03-08T18:11:37.518Z,6.30
2023-03-08T18:14:05.919Z,6.43
2023-03-08T18:16:33.546Z,6.60
2023-03-08T18:19:02.304Z,6.83
2023-03-08T18:21:30.497Z,6.33
2023-03-08T18:23:57.799Z,6.00
2023-03-08T18:26:25.036Z,6.10
2023-03-08T18:28:52.167Z,6.00
2023-03-08T18:31:20.913Z,6.37
2023-03-08T18:33:48.003Z,6.20
2023-03-08T18:36:15.435Z,6.60
2023-03-08T18:38:42.982Z,5.40
2023-03-08T18:41:17.158Z,6.37
2023-03-08T18:43:45.235Z,6.53
2023-03-08T18:46:13.195Z,6.13
2023-03-08T18:48:40.624Z,6.37
2023-03-08T18:51:07.766Z,6.30
2023-03-08T18:53:34.947Z,6.50
2023-03-08T18:56:04.144Z,6.53
2023-03-08T18:58:31.505Z,6.13
2023-03-08T19:00:59.127Z,6.50
2023-03-08T19:03:27.114Z,6.40
2023-03-08T19:05:54.235Z,6.70
2023-03-08T19:08:22.163Z,7.17
2023-03-08T19:10:49.231Z,6.63
2023-03-08T19:13:16.325Z,7.13
2023-03-08T19:15:43.560Z,6.93
2023-03-08T19:18:10.845Z,7.10
2023-03-08T19:20:39.342Z,6.87
2023-03-08T19:23:06.544Z,7.27
2023-03-08T19:25:34.335Z,6.97
2023-03-08T19:28:01.715Z,6.70
2023-03-08T19:30:28.755Z,7.27
2023-03-08T19:32:56.435Z,7.57
2023-03-08T19:35:23.579Z,7.80
2023-03-08T19:37:50.896Z,7.30
2023-03-08T19:40:18.184Z,7.33
2023-03-08T19:42:45.269Z,7.40
2023-03-08T19:45:13.723Z,7.50
2023-03-08T19:47:40.794Z,7.70
2023-03-08T19:50:08.128Z,8.13
2023-03-08T19:52:35.391Z,7.63
2023-03-08T19:55:02.423Z,6.73
2023-03-08T19:57:29.663Z,7.80
2023-03-08T19:59:57.760Z,6.77
2023-03-08T20:02:24.994Z,7.17
2023-03-08T20:04:52.099Z,7.47
2023-03-08T20:07:19.208Z,7.40
2023-03-08T20:09:46.377Z,8.13
2023-03-08T20:12:13.431Z,7.50
2023-03-08T20:14:40.557Z,8.33
2023-03-08T20:17:07.657Z,7.80
2023-03-08T20:19:35.682Z,8.00
2023-03-08T20:22:04.215Z,7.77
2023-03-08T20:24:31.673Z,8.40
2023-03-08T20:26:59.262Z,8.90
2023-03-08T20:29:26.403Z,9.03
2023-03-08T20:31:55.853Z,9.40
2023-03-08T20:34:23.360Z,8.70
2023-03-08T20:36:50.424Z,7.93
2023-03-08T20:39:18.273Z,8.13
2023-03-08T20:41:45.394Z,8.80
2023-03-08T20:44:12.557Z,8.50
2023-03-08T20:46:39.724Z,8.57
2023-03-08T20:49:06.834Z,8.50
2023-03-08T20:51:34.028Z,8.70
2023-03-08T20:54:01.233Z,8.07
2023-03-08T20:56:28.322Z,8.73
2023-03-08T20:58:57.595Z,8.40
2023-03-08T21:01:29.333Z,8.37
2023-03-08T21:03:56.457Z,8.53
2023-03-08T21:06:24.894Z,8.63
2023-03-08T21:08:52.487Z,8.60
2023-03-08T21:11:19.844Z,8.70
2023-03-08T21:13:50.355Z,7.70
2023-03-08T21:16:18.611Z,9.87
2023-03-08T21:18:49.079Z,8.77
2023-03-08T21:21:24.339Z,8.67
2023-03-08T21:23:54.180Z,8.93
2023-03-08T21:26:23.575Z,8.23
2023-03-08T21:28:50.918Z,8.33
2023-03-08T21:31:19.928Z,8.20
2023-03-08T21:33:47.786Z,8.73
2023-03-08T21:36:15.427Z,8.73
2023-03-08T21:38:42.651Z,9.37
2023-03-08T21:41:19.806Z,9.50
2023-03-08T21:43:46.992Z,8.27
2023-03-08T21:46:14.279Z,8.77
2023-03-08T21:48:41.393Z,8.90
2023-03-08T21:51:08.951Z,9.50
2023-03-08T21:53:36.504Z,9.10
2023-03-08T21:56:03.640Z,10.03
2023-03-08T21:58:30.714Z,10.70
2023-03-08T22:00:57.781Z,9.97
2023-03-08T22:03:26.540Z,9.87
2023-03-08T22:05:53.725Z,9.40
2023-03-08T22:08:21.763Z,9.70
2023-03-08T22:10:49.237Z,9.27
2023-03-08T22:13:16.286Z,9.87
2023-03-08T22:15:43.388Z,10.97
2023-03-08T22:18:10.451Z,10.17
2023-03-08T22:20:37.493Z,10.27
2023-03-08T22:23:04.642Z,10.00
2023-03-08T22:25:31.749Z,10.77
2023-03-08T22:27:58.821Z,9.87
2023-03-08T22:30:25.937Z,10.53
2023-03-08T22:32:53.306Z,10.40
2023-03-08T22:35:22.069Z,10.70
2023-03-08T22:37:49.234Z,9.73
2023-03-08T22:40:18.792Z,10.00
2023-03-08T22:42:46.331Z,10.43
2023-03-08T22:45:13.880Z,10.20
2023-03-08T22:47:41.237Z,9.53
2023-03-08T22:50:08.576Z,10.20
2023-03-08T22:52:35.704Z,9.50
2023-03-08T22:55:03.574Z,10.40
2023-03-08T22:57:31.202Z,10.07
2023-03-08T22:59:58.856Z,9.77
2023-03-08T23:02:27.687Z,10.50
2023-03-08T23:04:57.416Z,10.07
2023-03-08T23:07:24.480Z,9.60
2023-03-08T23:09:53.171Z,10.03
2023-03-08T23:12:20.313Z,9.60
2023-03-08T23:14:47.360Z,9.63
2023-03-08T23:17:14.427Z,9.67
2023-03-08T23:19:44.903Z,10.37
2023-03-08T23:22:12.921Z,10.23
2023-03-08T23:24:39.992Z,9.13
2023-03-08T23:27:07.154Z,9.73
2023-03-08T23:29:34.228Z,9.40
2023-03-08T23:32:01.406Z,9.37
2023-03-08T23:34:28.601Z,9.43
2023-03-08T23:36:55.647Z,9.43
2023-03-08T23:39:22.731Z,9.17
2023-03-08T23:41:49.991Z,8.13
2023-03-08T23:44:18.387Z,8.10
2023-03-08T23:46:46.188Z,8.50
2023-03-08T23:49:13.790Z,8.50
2023-03-08T23:51:40.875Z,8.37
2023-03-08T23:54:07.957Z,7.90
2023-03-08T23:56:37.890Z,7.63
2023-03-08T23:59:07.612Z,8.10
